Time;durP1;ratioP1;P1;durP2;ratioP2;P2;SDS_P1;SDS_P2;PMS_P1;PMS_P2;Temp;Humidity;BMP_temperature;BMP_pressure;BME280_temperature;BME280_humidity;BME280_pressure;Samples;Min_cycle;Max_cycle;Signal;HPM_P1;HPM_P2
2021/06/21 00:01:10;;;;;;;4.57;2.05;;;19.20;84.70;;;;;;5058803;28;20139;-72
2021/06/21 00:03:36;;;;;;;4.97;1.95;;;19.20;84.60;;;;;;5063113;28;20025;-73
2021/06/21 00:06:01;;;;;;;7.20;2.33;;;19.20;84.80;;;;;;5060299;28;20025;-72
2021/06/21 00:08:27;;;;;;;8.02;2.20;;;19.20;84.80;;;;;;5062684;28;20028;-73
2021/06/21 00:10:53;;;;;;;5.22;1.95;;;19.10;84.90;;;;;;5059855;28;21943;-73
2021/06/21 00:13:18;;;;;;;5.63;1.83;;;19.00;85.10;;;;;;5058006;28;20033;-72
2021/06/21 00:15:44;;;;;;;5.00;1.80;;;19.00;85.00;;;;;;5058572;28;20369;-73
2021/06/21 00:18:14;;;;;;;5.88;2.47;;;19.00;85.10;;;;;;5056384;28;20469;-72
2021/06/21 00:20:40;;;;;;;5.20;2.13;;;18.90;85.10;;;;;;5060275;28;20028;-72
2021/06/21 00:23:05;;;;;;;4.28;2.28;;;18.90;85.40;;;;;;5061319;28;20036;-72
2021/06/21 00:25:31;;;;;;;6.32;2.35;;;18.80;85.40;;;;;;5060879;28;20025;-72
2021/06/21 00:27:57;;;;;;;5.32;2.17;;;18.80;85.30;;;;;;5058380;28;20033;-72
2021/06/21 00:30:23;;;;;;;8.60;2.50;;;18.80;85.50;;;;;;5057593;28;20027;-73
2021/06/21 00:32:52;;;;;;;8.68;3.03;;;18.70;85.90;;;;;;5056319;28;20115;-72
2021/06/21 00:35:18;;;;;;;5.47;2.38;;;18.70;85.90;;;;;;5055552;28;20021;-72
2021/06/21 00:37:45;;;;;;;8.23;2.45;;;18.70;85.90;;;;;;5056787;28;20025;-72
2021/06/21 00:40:11;;;;;;;6.88;2.60;;;18.70;85.80;;;;;;5061771;28;20127;-73
2021/06/21 00:42:42;;;;;;;5.85;2.50;;;18.70;85.70;;;;;;5060622;28;20051;-73
2021/06/21 00:45:08;;;;;;;6.68;2.78;;;18.70;85.50;;;;;;5057185;28;20025;-73
2021/06/21 00:47:33;;;;;;;7.47;2.67;;;18.60;85.40;;;;;;5058026;28;20021;-73
2021/06/21 00:49:59;;;;;;;5.88;2.90;;;18.60;85.50;;;;;;5055690;28;20386;-73
2021/06/21 00:52:25;;;;;;;4.90;2.55;;;18.60;85.50;;;;;;5056890;28;20032;-72
2021/06/21 00:55:00;;;;;;;8.82;2.70;;;18.60;85.40;;;;;;5058234;28;20513;-72
2021/06/21 00:57:31;;;;;;;5.63;2.63;;;18.60;85.40;;;;;;5055979;28;20512;-72
2021/06/21 01:00:05;;;;;;;5.05;2.72;;;18.50;85.40;;;;;;5057230;28;20502;-72
2021/06/21 01:02:31;;;;;;;5.43;2.53;;;18.60;85.30;;;;;;5054836;28;20043;-72
2021/06/21 01:04:57;;;;;;;8.23;3.22;;;18.60;86.20;;;;;;5059149;28;20032;-72
2021/06/21 01:07:24;;;;;;;5.00;2.67;;;18.50;85.50;;;;;;5057070;28;20021;-72
2021/06/21 01:09:53;;;;;;;7.60;2.60;;;18.50;85.70;;;;;;5063037;28;20025;-72
2021/06/21 01:12:31;;;;;;;5.28;2.90;;;18.50;85.50;;;;;;5060169;28;20141;-72
2021/06/21 01:15:05;;;;;;;8.57;2.97;;;18.50;85.70;;;;;;5058117;28;20420;-72
2021/06/21 01:17:42;;;;;;;8.57;3.45;;;18.40;85.60;;;;;;5051083;28;20833;-72
2021/06/21 01:20:52;;;;;;;6.47;2.67;;;18.40;85.90;;;;;;5058168;28;20107;-73
2021/06/21 01:24:23;;;;;;;4.47;2.25;;;18.30;86.20;;;;;;5060372;28;20483;-73
2021/06/21 01:26:55;;;;;;;7.97;2.97;;;18.30;85.90;;;;;;5019191;28;20052;-72
2021/06/21 01:29:43;;;;;;;;;;;18.30;86.40;;;;;;5056814;28;21283;-72
2021/06/21 01:32:24;;;;;;;6.43;3.15;;;18.30;85.90;;;;;;5055888;28;19955;-72
2021/06/21 01:34:57;;;;;;;6.55;2.75;;;18.20;86.10;;;;;;5056823;28;20111;-73
2021/06/21 01:37:23;;;;;;;9.18;3.15;;;18.20;86.20;;;;;;5057979;28;20543;-72
2021/06/21 01:39:54;;;;;;;11.30;3.45;;;18.20;86.20;;;;;;5058675;28;20033;-72
2021/06/21 01:42:22;;;;;;;8.43;2.70;;;18.10;86.40;;;;;;5057171;28;20037;-73
2021/06/21 01:45:00;;;;;;;6.85;2.85;;;18.00;86.60;;;;;;5057281;28;20037;-73
2021/06/21 01:47:27;;;;;;;7.70;3.38;;;18.00;86.70;;;;;;5059192;28;20029;-72
2021/06/21 01:49:53;;;;;;;8.13;2.75;;;18.00;86.60;;;;;;5054439;28;20414;-72
2021/06/21 01:52:21;;;;;;;7.10;2.50;;;18.00;86.60;;;;;;5054525;28;20064;-72
2021/06/21 01:54:54;;;;;;;7.25;3.15;;;18.00;86.70;;;;;;5056693;28;20558;-72
2021/06/21 01:57:24;;;;;;;5.68;2.97;;;18.00;86.60;;;;;;5059259;28;20429;-72
2021/06/21 01:59:51;;;;;;;9.10;2.88;;;18.00;86.70;;;;;;5058700;28;20025;-72
2021/06/21 02:02:20;;;;;;;6.50;3.28;;;18.00;87.00;;;;;;5055084;28;20032;-72
2021/06/21 02:04:48;;;;;;;8.63;2.83;;;18.00;86.80;;;;;;5058641;28;20025;-72
2021/06/21 02:07:17;;;;;;;7.43;3.47;;;18.00;86.80;;;;;;5055058;28;20029;-72
2021/06/21 02:09:45;;;;;;;3.35;2.60;;;18.10;86.60;;;;;;5056709;28;20074;-72
2021/06/21 02:12:13;;;;;;;8.23;3.97;;;18.00;86.60;;;;;;5057364;28;20060;-72
2021/06/21 02:14:40;;;;;;;7.28;3.65;;;18.00;86.90;;;;;;5053703;28;20025;-72
2021/06/21 02:17:08;;;;;;;8.43;3.10;;;18.00;86.90;;;;;;5058222;28;20051;-72
2021/06/21 02:19:34;;;;;;;4.72;3.10;;;18.00;86.80;;;;;;5059659;28;20059;-72
2021/06/21 02:22:00;;;;;;;8.25;3.67;;;18.00;86.90;;;;;;5056652;28;20095;-72
2021/06/21 02:24:27;;;;;;;8.98;3.78;;;18.00;87.00;;;;;;5056287;28;20108;-73
2021/06/21 02:26:53;;;;;;;6.68;3.90;;;18.00;87.20;;;;;;5056881;28;20032;-72
2021/06/21 02:29:21;;;;;;;5.70;3.33;;;17.90;87.10;;;;;;5056339;28;20107;-72
2021/06/21 02:31:50;;;;;;;7.60;3.40;;;17.90;87.30;;;;;;5056315;28;20086;-72
2021/06/21 02:34:16;;;;;;;5.45;3.45;;;17.90;87.50;;;;;;5053728;28;20128;-72
2021/06/21 02:36:42;;;;;;;9.70;3.75;;;17.80;87.70;;;;;;5056317;28;20067;-72
2021/06/21 02:39:10;;;;;;;8.30;3.80;;;17.80;87.80;;;;;;5061220;28;20052;-72
2021/06/21 02:41:36;;;;;;;9.32;3.78;;;17.80;87.80;;;;;;5060978;28;20032;-72
2021/06/21 02:44:04;;;;;;;11.07;4.63;;;17.70;87.80;;;;;;5062384;28;20033;-72
2021/06/21 02:46:31;;;;;;;6.95;3.58;;;17.70;88.10;;;;;;5059783;28;20024;-72
2021/06/21 02:48:57;;;;;;;5.13;3.55;;;17.80;88.60;;;;;;5058689;28;20025;-72
2021/06/21 02:51:55;;;;;;;10.88;4.57;;;17.70;88.80;;;;;;5057295;28;20020;-72
2021/06/21 02:54:31;;;;;;;9.35;4.20;;;17.70;89.10;;;;;;5045679;28;20045;-72
2021/06/21 02:57:14;;;;;;;8.73;4.65;;;17.60;89.70;;;;;;5056054;28;20029;-72
2021/06/21 02:59:41;;;;;;;6.70;3.70;;;17.60;89.90;;;;;;5062831;28;20051;-72
2021/06/21 03:02:10;;;;;;;10.45;4.03;;;17.60;90.20;;;;;;5058214;28;20108;-72
2021/06/21 03:04:39;;;;;;;5.38;3.60;;;17.60;90.20;;;;;;5059882;28;20020;-72
2021/06/21 03:07:07;;;;;;;7.75;4.32;;;17.60;90.30;;;;;;5056753;28;20024;-72
2021/06/21 03:09:34;;;;;;;8.82;4.57;;;17.60;90.40;;;;;;5059059;28;20055;-72
2021/06/21 03:12:01;;;;;;;5.70;3.95;;;17.60;90.70;;;;;;5063584;28;20206;-71
2021/06/21 03:14:30;;;;;;;9.60;4.65;;;17.50;90.70;;;;;;5059118;28;20086;-71
2021/06/21 03:16:58;;;;;;;8.43;4.38;;;17.50;90.90;;;;;;5061123;28;20028;-71
2021/06/21 03:19:26;;;;;;;10.05;5.22;;;17.50;91.10;;;;;;5057632;28;20033;-72
2021/06/21 03:21:51;;;;;;;6.80;4.00;;;17.50;91.30;;;;;;5060782;28;20039;-72
2021/06/21 03:24:23;;;;;;;7.80;5.30;;;17.50;91.50;;;;;;5058510;28;20025;-72
2021/06/21 03:26:48;;;;;;;;;;;17.40;91.60;;;;;;5063168;28;20086;-71
2021/06/21 03:29:20;;;;;;;10.52;4.97;;;17.30;91.90;;;;;;5063429;28;19912;-71
2021/06/21 03:31:50;;;;;;;9.23;5.50;;;17.20;92.10;;;;;;5053831;28;20379;-71
2021/06/21 03:34:18;;;;;;;12.70;6.27;;;17.10;92.40;;;;;;5062017;28;20067;-71
2021/06/21 03:36:45;;;;;;;9.50;5.68;;;17.10;92.80;;;;;;5061653;28;20054;-71
2021/06/21 03:39:11;;;;;;;8.23;5.70;;;17.00;92.60;;;;;;5056417;28;20097;-71
2021/06/21 03:41:37;;;;;;;11.57;6.13;;;17.00;92.80;;;;;;5059192;28;20518;-72
2021/06/21 03:44:03;;;;;;;8.00;5.20;;;16.90;93.00;;;;;;5056426;28;20057;-71
2021/06/21 03:46:30;;;;;;;7.50;4.90;;;16.90;92.90;;;;;;5059835;28;20024;-71
2021/06/21 03:48:56;;;;;;;12.25;6.05;;;16.90;93.00;;;;;;5060930;28;20021;-71
2021/06/21 03:51:21;;;;;;;7.32;6.07;;;16.90;93.20;;;;;;5057481;28;20684;-72
2021/06/21 03:53:48;;;;;;;9.52;6.05;;;16.90;93.50;;;;;;5055628;28;20032;-71
2021/06/21 03:56:14;;;;;;;8.82;5.80;;;16.90;93.50;;;;;;5059047;28;20103;-71
2021/06/21 03:58:40;;;;;;;8.73;6.07;;;17.00;93.70;;;;;;5055442;28;20566;-71
2021/06/21 04:01:05;;;;;;;11.15;5.97;;;16.90;93.60;;;;;;5058223;28;20025;-71
2021/06/21 04:03:31;;;;;;;9.73;5.38;;;16.90;93.80;;;;;;5053590;28;20021;-71
2021/06/21 04:05:57;;;;;;;8.35;5.72;;;16.80;93.80;;;;;;5059844;28;20064;-71
2021/06/21 04:08:23;;;;;;;11.57;5.70;;;16.90;94.00;;;;;;5062179;28;20021;-71
2021/06/21 04:10:50;;;;;;;6.90;5.10;;;16.90;94.30;;;;;;5056995;28;20064;-71
2021/06/21 04:13:17;;;;;;;9.88;6.03;;;16.80;94.20;;;;;;5072871;28;20037;-71
2021/06/21 04:15:44;;;;;;;6.30;5.20;;;16.80;94.40;;;;;;5056672;28;20572;-71
2021/06/21 04:18:13;;;;;;;7.82;4.97;;;16.80;94.40;;;;;;5061156;28;20073;-71
2021/06/21 04:20:40;;;;;;;6.70;4.72;;;16.80;94.60;;;;;;5056808;28;20082;-71
2021/06/21 04:23:07;;;;;;;6.97;5.47;;;16.80;94.80;;;;;;5072430;22;20049;-71
2021/06/21 04:25:33;;;;;;;9.18;5.32;;;16.80;94.60;;;;;;5025104;28;20033;-70
2021/06/21 04:27:59;;;;;;;8.15;4.80;;;16.70;94.60;;;;;;5021060;28;20034;-70
2021/06/21 04:30:26;;;;;;;8.02;5.20;;;16.70;94.80;;;;;;5019999;28;20032;-70
2021/06/21 04:32:53;;;;;;;9.68;5.18;;;16.70;95.00;;;;;;5020598;28;20538;-70
2021/06/21 04:35:22;;;;;;;5.93;4.90;;;16.80;95.30;;;;;;5017599;28;20031;-70
2021/06/21 04:37:48;;;;;;;8.98;5.63;;;16.90;94.90;;;;;;5016849;28;20064;-69
2021/06/21 04:40:19;;;;;;;7.78;5.25;;;17.00;94.80;;;;;;5018526;28;20068;-72
2021/06/21 04:42:45;;;;;;;;;;;17.10;94.60;;;;;;5020356;28;20030;-72
2021/06/21 04:45:12;;;;;;;7.30;3.45;;;17.00;94.20;;;;;;5017339;28;20538;-72
2021/06/21 04:47:38;;;;;;;5.80;4.05;;;17.00;94.40;;;;;;5016228;28;20063;-71
2021/06/21 04:50:08;;;;;;;5.35;4.30;;;17.10;94.30;;;;;;5016367;28;20037;-71
2021/06/21 04:52:37;;;;;;;5.95;3.97;;;17.10;94.00;;;;;;5018095;28;20491;-72
2021/06/21 04:55:04;;;;;;;6.30;4.20;;;17.00;94.20;;;;;;5018554;28;20033;-72
2021/06/21 04:57:31;;;;;;;6.22;3.72;;;17.00;94.40;;;;;;5023727;28;20033;-73
2021/06/21 04:59:57;;;;;;;4.25;3.85;;;16.90;94.40;;;;;;5019309;28;20060;-72
2021/06/21 05:02:23;;;;;;;4.90;3.67;;;16.90;94.60;;;;;;5014484;28;20459;-71
2021/06/21 05:04:49;;;;;;;3.20;2.90;;;16.90;94.50;;;;;;5015391;28;20026;-71
2021/06/21 05:07:15;;;;;;;5.07;3.40;;;16.80;94.60;;;;;;5016716;28;20056;-72
2021/06/21 05:09:42;;;;;;;4.32;3.28;;;16.90;94.60;;;;;;5020128;28;20029;-72
2021/06/21 05:12:09;;;;;;;4.72;3.17;;;16.80;94.50;;;;;;5020555;28;20037;-72
2021/06/21 05:14:35;;;;;;;7.18;3.72;;;16.80;94.60;;;;;;5016873;28;20029;-72
2021/06/21 05:17:00;;;;;;;5.38;3.17;;;16.90;95.10;;;;;;5016798;28;20045;-71
2021/06/21 05:19:26;;;;;;;4.28;3.08;;;16.80;95.20;;;;;;5011586;28;20072;-74
2021/06/21 05:21:52;;;;;;;4.97;3.17;;;16.80;95.10;;;;;;5013572;28;20108;-73
2021/06/21 05:24:18;;;;;;;3.65;2.53;;;16.70;95.40;;;;;;5016555;28;20426;-71
2021/06/21 05:26:44;;;;;;;4.78;3.15;;;16.70;95.30;;;;;;5015018;28;20022;-78
2021/06/21 05:29:09;;;;;;;4.75;3.45;;;16.70;95.70;;;;;;5000216;28;20026;-75
2021/06/21 05:31:36;;;;;;;3.40;2.67;;;16.60;95.60;;;;;;5013575;28;20561;-76
2021/06/21 05:34:03;;;;;;;5.68;2.72;;;16.60;95.50;;;;;;5002704;28;20033;-77
2021/06/21 05:36:29;;;;;;;6.72;3.13;;;16.60;95.80;;;;;;5014039;28;20026;-75
2021/06/21 05:38:54;;;;;;;6.38;3.22;;;16.70;96.20;;;;;;5021604;28;20022;-75
2021/06/21 05:41:20;;;;;;;6.88;2.97;;;16.70;96.10;;;;;;5020526;28;20392;-73
2021/06/21 05:43:46;;;;;;;5.55;2.88;;;16.70;96.20;;;;;;4998673;28;20033;-73
2021/06/21 05:46:11;;;;;;;5.38;3.05;;;16.60;96.10;;;;;;5018450;28;20031;-72
2021/06/21 05:48:37;;;;;;;5.97;3.00;;;16.60;96.20;;;;;;5018235;28;20475;-71
2021/06/21 05:51:03;;;;;;;5.15;2.78;;;16.70;96.00;;;;;;5016435;28;20479;-73
2021/06/21 05:53:29;;;;;;;4.03;3.40;;;16.70;96.20;;;;;;5020555;28;20752;-74
2021/06/21 05:55:56;;;;;;;4.38;3.03;;;16.70;96.30;;;;;;5016283;28;20022;-74
2021/06/21 05:58:22;;;;;;;3.67;2.83;;;16.70;96.10;;;;;;4986947;28;20486;-72
2021/06/21 06:00:48;;;;;;;5.45;3.05;;;16.70;96.20;;;;;;5017103;28;20040;-73
2021/06/21 06:03:13;;;;;;;3.17;2.40;;;16.70;96.30;;;;;;5022949;28;20026;-73
2021/06/21 06:05:39;;;;;;;4.38;3.00;;;16.70;96.20;;;;;;5017545;28;20097;-74
2021/06/21 06:08:05;;;;;;;2.97;2.17;;;16.70;96.20;;;;;;4998074;28;20025;-73
2021/06/21 06:10:31;;;;;;;4.63;2.95;;;16.70;96.40;;;;;;5006289;28;20407;-74
2021/06/21 06:12:57;;;;;;;3.72;2.30;;;16.70;96.40;;;;;;5015735;28;20098;-74
2021/06/21 06:15:23;;;;;;;4.20;2.63;;;16.70;96.30;;;;;;5016780;28;20032;-74
2021/06/21 06:17:50;;;;;;;3.90;2.40;;;16.70;96.50;;;;;;5018400;28;20050;-74
2021/06/21 06:20:16;;;;;;;3.83;2.63;;;16.70;96.40;;;;;;5001787;28;20103;-74
2021/06/21 06:22:42;;;;;;;4.63;2.33;;;16.60;96.60;;;;;;5020768;28;20518;-72
2021/06/21 06:25:13;;;;;;;3.33;2.38;;;16.60;96.70;;;;;;5017690;28;20044;-73
2021/06/21 06:27:39;;;;;;;3.47;2.63;;;16.60;96.50;;;;;;4999929;28;20117;-73
2021/06/21 06:30:07;;;;;;;3.53;2.22;;;16.70;96.70;;;;;;5020625;28;20104;-74
2021/06/21 06:32:35;;;;;;;2.75;2.13;;;16.70;96.70;;;;;;5021408;28;20033;-73
2021/06/21 06:35:02;;;;;;;3.33;2.28;;;16.70;96.80;;;;;;5021942;28;20504;-71
2021/06/21 06:37:28;;;;;;;4.68;2.28;;;16.70;96.80;;;;;;5020068;28;20491;-74
2021/06/21 06:39:53;;;;;;;4.78;2.42;;;16.70;97.10;;;;;;5016858;28;20036;-74
2021/06/21 06:42:19;;;;;;;4.47;2.90;;;16.70;96.90;;;;;;5014310;28;20133;-73
2021/06/21 06:44:45;;;;;;;24.23;3.50;;;16.70;97.10;;;;;;5020663;28;20565;-73
2021/06/21 06:47:11;;;;;;;3.35;2.10;;;16.70;96.80;;;;;;5016183;28;20388;-73
2021/06/21 06:49:37;;;;;;;4.78;2.40;;;16.60;96.90;;;;;;4999620;28;20040;-72
2021/06/21 06:52:03;;;;;;;3.17;2.38;;;16.60;97.30;;;;;;5018217;28;20487;-72
2021/06/21 06:54:44;;;;;;;4.18;2.22;;;16.60;97.50;;;;;;5001242;28;20053;-72
2021/06/21 06:57:09;;;;;;;3.20;2.23;;;16.60;97.70;;;;;;5014681;28;20025;-72
2021/06/21 06:59:37;;;;;;;4.20;2.40;;;16.60;97.70;;;;;;5019965;28;20021;-71
2021/06/21 07:02:07;;;;;;;3.22;2.30;;;16.50;97.80;;;;;;5018830;28;20541;-73
2021/06/21 07:04:35;;;;;;;5.68;2.28;;;16.50;98.00;;;;;;5021194;28;20435;-73
2021/06/21 07:07:02;;;;;;;4.90;2.30;;;16.50;98.20;;;;;;5017397;28;20040;-73
2021/06/21 07:09:29;;;;;;;4.78;2.30;;;16.50;98.20;;;;;;5018646;28;20044;-72
2021/06/21 07:11:56;;;;;;;4.68;2.30;;;16.50;98.00;;;;;;5023959;28;21111;-73
2021/06/21 07:14:22;;;;;;;2.83;2.30;;;16.50;98.00;;;;;;5016785;28;20038;-72
2021/06/21 07:16:49;;;;;;;3.38;2.55;;;16.40;98.40;;;;;;5004488;28;20029;-71
2021/06/21 07:19:17;;;;;;;3.97;2.10;;;16.40;98.20;;;;;;5018885;28;20502;-71
2021/06/21 07:21:43;;;;;;;4.82;2.28;;;16.40;98.50;;;;;;5020524;28;20056;-72
2021/06/21 07:24:10;;;;;;;4.43;2.05;;;16.50;98.60;;;;;;5017950;28;20026;-71
2021/06/21 07:26:37;;;;;;;2.97;2.20;;;16.50;98.60;;;;;;5020871;28;20058;-72
2021/06/21 07:29:04;;;;;;;3.13;2.30;;;16.50;98.60;;;;;;5000771;28;20041;-72
2021/06/21 07:31:30;;;;;;;4.07;2.25;;;16.50;98.80;;;;;;5017190;28;20570;-71
2021/06/21 07:33:56;;;;;;;4.47;2.67;;;16.50;98.70;;;;;;5000961;28;20038;-71
2021/06/21 07:36:22;;;;;;;4.45;2.70;;;16.50;98.70;;;;;;5020677;28;20033;-71
2021/06/21 07:38:47;;;;;;;3.38;2.40;;;16.60;98.80;;;;;;5019913;28;20033;-71
2021/06/21 07:41:13;;;;;;;4.78;2.50;;;16.60;99.00;;;;;;5019688;28;20030;-71
2021/06/21 07:43:39;;;;;;;2.67;2.08;;;16.50;98.80;;;;;;5020125;28;20447;-72
2021/06/21 07:46:05;;;;;;;3.47;2.10;;;16.50;99.00;;;;;;5018456;28;20029;-70
2021/06/21 07:48:31;;;;;;;3.97;2.35;;;16.50;99.00;;;;;;5020056;28;20021;-72
2021/06/21 07:50:57;;;;;;;3.65;2.30;;;16.50;99.30;;;;;;5020101;28;20026;-72
2021/06/21 07:53:23;;;;;;;3.28;2.33;;;16.60;99.40;;;;;;5020946;28;20464;-73
2021/06/21 07:55:48;;;;;;;2.90;2.50;;;16.60;99.40;;;;;;5019920;28;20120;-73
2021/06/21 07:58:14;;;;;;;3.33;2.42;;;16.60;99.50;;;;;;5018042;28;20072;-72
2021/06/21 08:00:40;;;;;;;3.83;2.63;;;16.60;99.60;;;;;;5019888;28;20537;-72
2021/06/21 08:03:10;;;;;;;3.88;2.63;;;16.60;99.70;;;;;;5016204;28;20021;-73
2021/06/21 08:05:37;;;;;;;3.67;2.60;;;16.60;99.60;;;;;;5019308;28;20145;-71
2021/06/21 08:08:04;;;;;;;2.60;2.20;;;16.60;99.60;;;;;;5001278;28;20034;-73
2021/06/21 08:10:30;;;;;;;3.67;2.35;;;16.60;99.80;;;;;;5018113;28;20083;-73
2021/06/21 08:12:55;;;;;;;2.95;2.38;;;16.60;99.80;;;;;;5019627;28;20112;-73
2021/06/21 08:15:21;;;;;;;2.13;1.92;;;16.60;99.70;;;;;;5018317;28;20029;-72
2021/06/21 08:17:47;;;;;;;2.95;2.08;;;16.60;99.70;;;;;;5001493;28;20029;-72
2021/06/21 08:20:14;;;;;;;3.22;2.40;;;16.60;99.80;;;;;;5023490;28;20037;-72
2021/06/21 08:22:40;;;;;;;3.00;2.25;;;16.60;99.80;;;;;;5022205;28;20040;-72
2021/06/21 08:25:07;;;;;;;3.05;2.45;;;16.60;99.70;;;;;;5018759;28;20029;-72
2021/06/21 08:27:34;;;;;;;2.35;1.77;;;16.60;99.90;;;;;;5000054;28;20033;-72
2021/06/21 08:30:00;;;;;;;2.45;1.70;;;16.60;99.90;;;;;;5017146;28;20743;-72
2021/06/21 08:32:26;;;;;;;1.90;1.38;;;16.60;99.90;;;;;;5023475;28;20041;-72
2021/06/21 08:34:52;;;;;;;1.70;1.40;;;16.60;99.90;;;;;;5015490;28;20029;-73
2021/06/21 08:37:20;;;;;;;1.63;1.27;;;16.60;99.90;;;;;;5000242;28;20036;-73
2021/06/21 08:39:47;;;;;;;1.27;1.17;;;16.60;99.90;;;;;;5015562;28;20049;-73
2021/06/21 08:42:12;;;;;;;1.40;1.30;;;16.60;99.90;;;;;;5019244;28;20034;-73
2021/06/21 08:44:41;;;;;;;1.50;1.30;;;16.70;99.90;;;;;;5011446;28;20108;-71
2021/06/21 08:47:12;;;;;;;1.40;1.23;;;16.70;99.90;;;;;;5017454;28;20045;-73
2021/06/21 08:49:45;;;;;;;3.50;1.13;;;16.60;99.90;;;;;;5019607;28;20053;-70
2021/06/21 08:52:15;;;;;;;1.63;1.30;;;16.60;99.80;;;;;;5018344;28;20116;-72
2021/06/21 08:54:42;;;;;;;2.00;1.30;;;16.60;99.90;;;;;;5017664;28;20034;-72
2021/06/21 08:57:08;;;;;;;2.10;1.48;;;16.70;99.90;;;;;;5018998;28;20403;-74
2021/06/21 08:59:34;;;;;;;2.08;1.50;;;16.80;99.90;;;;;;5018853;28;20473;-72
2021/06/21 09:02:00;;;;;;;2.55;1.50;;;16.80;99.90;;;;;;5016126;28;20515;-71
2021/06/21 09:04:28;;;;;;;1.55;1.10;;;16.90;99.90;;;;;;5000869;28;20025;-72
2021/06/21 09:07:13;;;;;;;2.28;1.10;;;16.90;99.90;;;;;;5016130;28;20033;-73
2021/06/21 09:09:38;;;;;;;1.23;1.13;;;16.80;99.70;;;;;;5017056;28;20404;-72
2021/06/21 09:12:04;;;;;;;1.55;1.45;;;16.80;99.90;;;;;;5019780;28;20213;-72
2021/06/21 09:14:32;;;;;;;1.08;1.00;;;16.80;99.80;;;;;;5018700;28;20117;-72
2021/06/21 09:17:03;;;;;;;1.33;1.15;;;16.80;99.90;;;;;;5016130;28;20053;-72
2021/06/21 09:19:30;;;;;;;1.52;1.00;;;16.80;99.90;;;;;;5015808;28;20037;-72
2021/06/21 09:21:57;;;;;;;1.70;1.10;;;16.80;99.90;;;;;;5016965;28;20511;-72
2021/06/21 09:24:28;;;;;;;1.35;1.15;;;16.80;99.90;;;;;;5018724;28;20037;-73
2021/06/21 09:26:56;;;;;;;1.10;1.00;;;16.80;99.90;;;;;;5017890;28;20018;-71
2021/06/21 09:29:40;;;;;;;1.15;1.00;;;16.80;99.90;;;;;;5019015;28;20462;-72
2021/06/21 09:32:07;;;;;;;1.10;1.00;;;16.80;99.90;;;;;;5017961;28;20033;-71
2021/06/21 09:34:33;;;;;;;1.48;0.82;;;16.80;99.90;;;;;;5017098;28;20108;-69
2021/06/21 09:37:08;;;;;;;3.45;1.38;;;16.80;99.90;;;;;;5019133;28;20116;-73
2021/06/21 09:39:39;;;;;;;1.35;0.93;;;16.90;99.90;;;;;;5014825;28;20045;-73
2021/06/21 09:42:10;;;;;;;;;;;16.90;99.90;;;;;;4998716;28;20036;-73
2021/06/21 09:44:44;;;;;;;2.83;1.00;;;16.90;99.90;;;;;;5005884;28;19909;-73
2021/06/21 09:47:14;;;;;;;1.20;1.10;;;16.90;99.90;;;;;;5017597;28;20032;-73
2021/06/21 09:50:17;;;;;;;2.15;1.13;;;17.00;99.90;;;;;;5016628;28;20084;-73
2021/06/21 09:52:58;;;;;;;1.40;1.17;;;17.00;99.90;;;;;;5016561;28;20037;-73
2021/06/21 09:55:40;;;;;;;1.58;1.15;;;17.00;99.90;;;;;;5017384;28;20030;-72
2021/06/21 09:58:19;;;;;;;1.20;1.10;;;17.00;99.90;;;;;;5000254;28;20052;-72
2021/06/21 10:00:49;;;;;;;1.98;1.33;;;17.00;99.80;;;;;;5015554;28;20471;-73
2021/06/21 10:03:20;;;;;;;2.03;1.40;;;17.00;99.90;;;;;;5017500;28;20017;-73
2021/06/21 10:06:11;;;;;;;2.05;1.42;;;17.10;99.70;;;;;;5014240;28;20026;-73
2021/06/21 10:08:44;;;;;;;1.58;1.30;;;17.10;99.80;;;;;;5016219;28;20166;-73
2021/06/21 10:11:30;;;;;;;1.25;1.02;;;17.10;99.70;;;;;;5017456;28;20029;-73
2021/06/21 10:14:26;;;;;;;1.80;1.70;;;17.10;99.80;;;;;;5016394;28;20068;-75
2021/06/21 10:16:53;;;;;;;1.05;0.95;;;17.20;99.30;;;;;;5011658;28;20056;-74
2021/06/21 10:19:20;;;;;;;2.17;0.98;;;17.10;99.40;;;;;;4999003;28;20066;-74
2021/06/21 10:21:56;;;;;;;1.67;1.10;;;17.10;99.60;;;;;;5017671;28;20108;-74
2021/06/21 10:24:30;;;;;;;1.63;1.20;;;17.20;99.70;;;;;;5017887;28;20026;-74
2021/06/21 10:26:56;;;;;;;1.83;0.90;;;17.10;99.50;;;;;;4999542;28;20506;-74
2021/06/21 10:29:22;;;;;;;2.13;1.00;;;17.10;99.40;;;;;;5011763;28;20026;-74
2021/06/21 10:31:49;;;;;;;1.90;1.00;;;17.10;99.10;;;;;;5014349;28;20048;-73
2021/06/21 10:34:17;;;;;;;1.20;1.10;;;17.00;99.20;;;;;;5014279;28;20079;-74
2021/06/21 10:37:01;;;;;;;1.60;1.30;;;17.10;99.50;;;;;;5002086;28;20109;-74
2021/06/21 10:39:29;;;;;;;1.30;1.20;;;17.20;99.70;;;;;;5016392;28;20042;-74
2021/06/21 10:42:05;;;;;;;1.33;1.13;;;17.30;99.70;;;;;;5016294;28;20427;-74
2021/06/21 10:44:55;;;;;;;1.73;0.82;;;17.20;99.40;;;;;;5018507;28;20073;-73
2021/06/21 10:47:36;;;;;;;1.10;1.00;;;17.30;99.60;;;;;;5002192;28;20038;-72
2021/06/21 10:50:15;;;;;;;0.80;0.80;;;17.30;99.30;;;;;;5012165;28;20026;-71
2021/06/21 10:52:51;;;;;;;1.15;0.90;;;17.30;99.20;;;;;;5010577;28;20029;-72
2021/06/21 10:55:26;;;;;;;1.08;0.90;;;17.40;99.40;;;;;;5013745;28;20025;-72
2021/06/21 10:57:56;;;;;;;0.77;0.77;;;17.40;99.20;;;;;;4999589;28;20026;-73
2021/06/21 11:00:43;;;;;;;1.08;0.98;;;17.40;99.20;;;;;;4993738;28;20034;-72
2021/06/21 11:03:31;;;;;;;0.90;0.90;;;17.40;99.10;;;;;;5016405;28;20068;-72
2021/06/21 11:06:01;;;;;;;2.35;1.10;;;17.40;98.80;;;;;;5005591;28;20831;-72
2021/06/21 11:08:40;;;;;;;1.88;1.30;;;17.40;98.90;;;;;;5021194;28;20065;-70
2021/06/21 11:11:38;;;;;;;1.63;1.40;;;17.40;99.10;;;;;;5027420;28;20033;-70
2021/06/21 11:14:09;;;;;;;1.20;1.10;;;17.30;99.10;;;;;;5001254;28;20117;-72
2021/06/21 11:16:36;;;;;;;1.33;1.10;;;17.40;99.20;;;;;;5020753;28;20029;-70
2021/06/21 11:19:22;;;;;;;1.27;1.17;;;17.30;98.70;;;;;;5003263;28;20499;-72
2021/06/21 11:21:52;;;;;;;1.23;1.13;;;17.30;98.80;;;;;;5019524;28;20036;-70
2021/06/21 11:24:38;;;;;;;1.30;1.05;;;17.30;98.60;;;;;;5003886;28;20491;-71
2021/06/21 11:27:07;;;;;;;1.38;1.27;;;17.20;98.80;;;;;;5013049;28;20034;-74
2021/06/21 11:29:41;;;;;;;1.50;1.40;;;17.20;99.00;;;;;;5014298;28;20025;-72
2021/06/21 11:32:07;;;;;;;1.05;0.95;;;17.30;98.90;;;;;;5007784;28;20450;-72
2021/06/21 11:34:48;;;;;;;1.08;1.00;;;17.30;98.90;;;;;;5018418;28;20033;-71
2021/06/21 11:37:40;;;;;;;1.73;1.50;;;17.40;99.00;;;;;;5000388;28;20030;-72
2021/06/21 11:40:12;;;;;;;2.15;1.95;;;17.50;99.00;;;;;;5017704;28;20811;-73
2021/06/21 11:42:42;;;;;;;2.25;1.80;;;17.50;99.10;;;;;;5016230;28;20101;-71
2021/06/21 11:45:09;;;;;;;2.45;1.80;;;17.50;98.90;;;;;;5020914;28;20026;-72
2021/06/21 11:47:36;;;;;;;2.08;1.80;;;17.50;98.90;;;;;;5011958;28;20018;-71
2021/06/21 11:50:09;;;;;;;1.33;1.23;;;17.50;98.60;;;;;;5011306;28;20525;-72
2021/06/21 11:52:35;;;;;;;2.05;1.77;;;17.50;98.30;;;;;;4994542;28;20049;-71
2021/06/21 11:55:15;;;;;;;1.98;1.60;;;17.40;98.30;;;;;;5015826;28;20038;-72
2021/06/21 11:57:42;;;;;;;2.00;1.63;;;17.40;98.70;;;;;;4995384;28;20040;-72
2021/06/21 12:00:09;;;;;;;2.20;2.00;;;17.40;98.30;;;;;;5016785;28;20547;-71
2021/06/21 12:02:35;;;;;;;1.70;1.60;;;17.40;98.70;;;;;;5022329;28;20483;-71
2021/06/21 12:05:11;;;;;;;3.00;1.98;;;17.40;98.60;;;;;;5019735;28;20041;-71
2021/06/21 12:07:41;;;;;;;2.13;1.92;;;17.40;98.30;;;;;;5001395;28;20124;-73
2021/06/21 12:10:18;;;;;;;3.50;1.65;;;17.40;98.60;;;;;;5015046;28;20519;-72
2021/06/21 12:12:47;;;;;;;3.42;2.20;;;17.40;98.70;;;;;;5019984;28;20080;-72
2021/06/21 12:15:25;;;;;;;3.42;2.17;;;17.40;98.60;;;;;;5019333;28;20595;-72
2021/06/21 12:17:51;;;;;;;1.80;1.70;;;17.30;98.10;;;;;;4998734;28;20036;-71
2021/06/21 12:20:19;;;;;;;3.53;2.10;;;17.30;98.20;;;;;;5018096;28;20056;-71
2021/06/21 12:23:00;;;;;;;2.30;2.10;;;17.30;98.40;;;;;;5015330;28;20120;-72
2021/06/21 12:25:30;;;;;;;2.08;1.83;;;17.30;98.20;;;;;;5015191;28;20040;-72
2021/06/21 12:28:12;;;;;;;4.10;2.20;;;17.20;98.10;;;;;;5005188;28;20095;-72
2021/06/21 12:30:57;;;;;;;2.20;2.00;;;17.20;97.90;;;;;;5011944;28;20017;-73
2021/06/21 12:33:38;;;;;;;2.35;2.13;;;17.20;98.20;;;;;;5017038;28;20029;-73
2021/06/21 12:36:26;;;;;;;2.20;2.00;;;17.10;98.10;;;;;;5021437;28;20036;-73
2021/06/21 12:39:01;;;;;;;2.20;2.00;;;17.10;98.30;;;;;;5019147;28;20487;-74
2021/06/21 12:41:30;;;;;;;2.45;2.10;;;17.00;98.10;;;;;;5016934;28;20029;-71
2021/06/21 12:43:57;;;;;;;2.35;2.15;;;17.00;98.30;;;;;;4999555;28;20044;-71
2021/06/21 12:46:25;;;;;;;2.03;1.80;;;17.10;98.50;;;;;;5014952;28;20037;-72
2021/06/21 12:48:53;;;;;;;2.22;2.03;;;17.10;98.50;;;;;;5016615;28;20026;-72
2021/06/21 12:51:20;;;;;;;2.00;1.80;;;17.10;98.50;;;;;;5020580;28;20360;-71
2021/06/21 12:53:50;;;;;;;1.73;1.63;;;17.20;98.50;;;;;;5015771;28;20029;-71
2021/06/21 12:56:41;;;;;;;5.50;1.77;;;17.20;98.10;;;;;;5017929;28;20483;-71
2021/06/21 12:59:30;;;;;;;3.08;2.08;;;17.20;98.20;;;;;;5007397;28;20455;-72
2021/06/21 13:01:57;;;;;;;2.22;2.03;;;17.20;98.30;;;;;;5016669;28;20021;-73